createdAt,value
2022-09-21T00:00:08.247Z,73.69
2022-09-21T00:01:08.316Z,73.69
2022-09-21T00:02:08.335Z,73.69
2022-09-21T00:03:08.294Z,73.41
2022-09-21T00:04:08.200Z,73.5
2022-09-21T00:05:08.333Z,73.5
2022-09-21T00:06:08.328Z,73.5
2022-09-21T00:07:08.075Z,73.5
2022-09-21T00:08:08.098Z,73.5
2022-09-21T00:09:08.107Z,73.5
2022-09-21T00:10:08.145Z,73.32
2022-09-21T00:11:08.444Z,73.5
2022-09-21T00:12:08.420Z,73.5
2022-09-21T00:13:08.458Z,73.5
2022-09-21T00:14:08.677Z,73.32
2022-09-21T00:15:08.223Z,73.41
2022-09-21T00:16:08.562Z,73.5
2022-09-21T00:17:08.521Z,73.5
2022-09-21T00:18:08.545Z,73.32
2022-09-21T00:19:08.328Z,73.5
2022-09-21T00:20:08.301Z,73.41
2022-09-21T00:21:08.312Z,73.32
2022-09-21T00:22:08.602Z,73.5
2022-09-21T00:23:08.642Z,73.5
2022-09-21T00:24:08.645Z,73.5
2022-09-21T00:25:08.667Z,73.41
2022-09-21T00:26:08.634Z,73.28
2022-09-21T00:27:08.645Z,73.41
2022-09-21T00:28:08.656Z,73.47
2022-09-21T00:29:08.683Z,73.37
2022-09-21T00:30:08.459Z,73.5
2022-09-21T00:31:08.452Z,73.47
2022-09-21T00:32:08.821Z,73.37
2022-09-21T00:33:08.747Z,73.18
2022-09-21T00:34:08.946Z,73.56
2022-09-21T00:35:08.788Z,73.28
2022-09-21T00:36:08.794Z,73.28
2022-09-21T00:37:08.819Z,73.37
2022-09-21T00:38:08.835Z,73.12
2022-09-21T00:39:08.851Z,73.37
2022-09-21T00:40:08.971Z,73.28
2022-09-21T00:41:08.886Z,73.47
2022-09-21T00:42:08.895Z,73.37
2022-09-21T00:43:08.925Z,73.56
2022-09-21T00:44:08.936Z,73.47
2022-09-21T00:45:08.962Z,73.37
2022-09-21T00:46:08.881Z,73.47
2022-09-21T00:47:08.993Z,73.56
2022-09-21T00:48:09.061Z,73.47
2022-09-21T00:49:09.333Z,73.56
2022-09-21T00:50:08.785Z,73.28
2022-09-21T00:51:08.801Z,73.28
2022-09-21T00:52:08.825Z,73.75
2022-09-21T00:53:09.093Z,73.66
2022-09-21T00:54:09.110Z,73.47
2022-09-21T00:55:09.134Z,73.47
2022-09-21T00:56:09.149Z,73.56
2022-09-21T00:57:09.163Z,73.56
2022-09-21T00:58:09.186Z,73.56
2022-09-21T00:59:09.272Z,73.75
2022-09-21T01:00:09.222Z,73.56
2022-09-21T01:01:09.315Z,73.47
2022-09-21T01:02:09.078Z,73.56
2022-09-21T01:03:09.274Z,73.56
2022-09-21T01:04:09.449Z,73.37
2022-09-21T01:05:09.311Z,73.28
2022-09-21T01:06:09.320Z,73.28
2022-09-21T01:07:09.085Z,73.75
2022-09-21T01:08:09.363Z,73.47
2022-09-21T01:09:09.376Z,73.47
2022-09-21T01:10:09.135Z,73.37
2022-09-21T01:11:09.152Z,73.37
2022-09-21T01:12:09.422Z,73.47
2022-09-21T01:13:09.441Z,73.47
2022-09-21T01:14:10.158Z,73.47
2022-09-21T01:15:09.482Z,73.47
2022-09-21T01:16:09.584Z,73.56
2022-09-21T01:17:09.509Z,73.66
2022-09-21T01:18:09.553Z,73.66
2022-09-21T01:19:09.543Z,73.66
2022-09-21T01:20:09.590Z,73.47
2022-09-21T01:21:09.981Z,73.56
2022-09-21T01:22:09.603Z,73.66
2022-09-21T01:23:09.357Z,73.37
2022-09-21T01:24:09.638Z,73.28
2022-09-21T01:25:09.394Z,73.28
2022-09-21T01:26:09.414Z,73.28
2022-09-21T01:27:09.683Z,73.47
2022-09-21T01:28:09.715Z,73.37
2022-09-21T01:29:09.488Z,73.28
2022-09-21T01:30:09.735Z,73.28
2022-09-21T01:31:09.763Z,73.08
2022-09-21T01:32:09.770Z,73.08
2022-09-21T01:33:09.534Z,72.99
2022-09-21T01:34:09.975Z,72.99
2022-09-21T01:35:09.563Z,72.89
2022-09-21T01:36:09.863Z,73.08
2022-09-21T01:37:09.854Z,72.99
2022-09-21T01:38:09.880Z,72.99
2022-09-21T01:39:09.898Z,73.08
2022-09-21T01:40:10.032Z,72.89
2022-09-21T01:41:09.932Z,72.89
2022-09-21T01:42:09.690Z,73.08
2022-09-21T01:43:09.962Z,72.99
2022-09-21T01:44:09.722Z,73.28
2022-09-21T01:45:09.996Z,72.89
2022-09-21T01:46:10.086Z,73.28
2022-09-21T01:47:09.773Z,73.37
2022-09-21T01:48:10.048Z,73.28
2022-09-21T01:49:10.087Z,73.28
2022-09-21T01:50:10.107Z,73.18
2022-09-21T01:51:10.102Z,73.37
2022-09-21T01:52:10.139Z,73.37
2022-09-21T01:53:10.138Z,73.28
2022-09-21T01:54:10.155Z,72.99
2022-09-21T01:55:10.166Z,73.47
2022-09-21T01:56:09.930Z,73.47
2022-09-21T01:57:10.201Z,73.24
2022-09-21T01:58:10.219Z,73.28
2022-09-21T01:59:09.980Z,73.37
2022-09-21T02:00:10.263Z,73.47
2022-09-21T02:01:10.384Z,73.28
2022-09-21T02:02:10.461Z,73.08
2022-09-21T02:03:10.301Z,73.43
2022-09-21T02:04:10.332Z,73.47
2022-09-21T02:05:10.340Z,73.18
2022-09-21T02:06:10.383Z,73.08
2022-09-21T02:07:10.120Z,72.99
2022-09-21T02:08:10.552Z,73.08
2022-09-21T02:09:10.158Z,73.28
2022-09-21T02:10:10.426Z,73.14
2022-09-21T02:11:10.192Z,72.89
2022-09-21T02:12:10.202Z,72.76
2022-09-21T02:13:10.223Z,72.76
2022-09-21T02:14:10.495Z,72.67
2022-09-21T02:15:10.353Z,72.86
2022-09-21T02:16:10.651Z,72.51
2022-09-21T02:17:10.285Z,72.61
2022-09-21T02:18:10.562Z,72.67
2022-09-21T02:19:10.677Z,72.76
2022-09-21T02:20:10.593Z,72.76
2022-09-21T02:21:10.949Z,72.86
2022-09-21T02:22:10.398Z,72.76
2022-09-21T02:23:10.655Z,72.76
2022-09-21T02:24:10.693Z,72.57
2022-09-21T02:25:10.690Z,72.67
2022-09-21T02:26:10.698Z,72.76
2022-09-21T02:27:10.724Z,72.76
2022-09-21T02:28:10.735Z,72.67
2022-09-21T02:29:10.756Z,72.76
2022-09-21T02:30:10.769Z,72.48
2022-09-21T02:31:10.847Z,72.67
2022-09-21T02:32:10.800Z,72.76
2022-09-21T02:33:10.824Z,72.76
2022-09-21T02:34:10.911Z,72.67
2022-09-21T02:35:10.601Z,72.76
2022-09-21T02:36:10.872Z,72.76
2022-09-21T02:37:10.889Z,72.76
2022-09-21T02:38:10.668Z,72.76
2022-09-21T02:39:10.665Z,72.86
2022-09-21T02:40:11.054Z,72.76
2022-09-21T02:41:10.962Z,72.76
2022-09-21T02:42:10.969Z,72.57
2022-09-21T02:43:10.737Z,73.05
2022-09-21T02:44:10.751Z,73.05
2022-09-21T02:45:11.023Z,73.05
2022-09-21T02:46:11.168Z,73.14
2022-09-21T02:47:10.804Z,73.05
2022-09-21T02:48:11.075Z,72.38
2022-09-21T02:49:10.847Z,73.05
2022-09-21T02:50:11.111Z,72.76
2022-09-21T02:51:10.869Z,72.76
2022-09-21T02:52:11.146Z,72.57
2022-09-21T02:53:11.165Z,72.48
2022-09-21T02:54:10.944Z,72.48
2022-09-21T02:55:11.204Z,72.38
2022-09-21T02:56:11.235Z,72.67
2022-09-21T02:57:10.974Z,72.48
2022-09-21T02:58:11.249Z,72.48
2022-09-21T02:59:11.014Z,72.38
2022-09-21T03:00:11.024Z,72.28
2022-09-21T03:01:11.156Z,72.67
2022-09-21T03:02:11.167Z,72.48
2022-09-21T03:03:11.336Z,72.76
2022-09-21T03:04:11.356Z,72.28
2022-09-21T03:05:11.368Z,72.38
2022-09-21T03:06:11.129Z,72.57
2022-09-21T03:07:11.145Z,72.67
2022-09-21T03:08:11.423Z,72.28
2022-09-21T03:09:11.175Z,72.48
2022-09-21T03:10:11.472Z,72.38
2022-09-21T03:11:11.207Z,72.38
2022-09-21T03:12:11.511Z,72.38
2022-09-21T03:13:11.499Z,72.38
2022-09-21T03:14:11.525Z,72.38
2022-09-21T03:15:11.538Z,72.19
2022-09-21T03:16:11.378Z,72.19
2022-09-21T03:17:11.570Z,72.28
2022-09-21T03:18:11.345Z,72.19
2022-09-21T03:19:11.602Z,72.09
2022-09-21T03:20:11.357Z,72.28
2022-09-21T03:21:11.936Z,72.19
2022-09-21T03:22:11.656Z,72.19
2022-09-21T03:23:11.440Z,72.19
2022-09-21T03:24:11.692Z,72.19
2022-09-21T03:25:11.725Z,72.19
2022-09-21T03:26:11.747Z,72.19
2022-09-21T03:27:11.486Z,72.19
2022-09-21T03:28:11.781Z,72.19
2022-09-21T03:29:11.514Z,72.38
2022-09-21T03:30:11.535Z,72.09
2022-09-21T03:31:11.960Z,72.19
2022-09-21T03:32:11.825Z,72.09
2022-09-21T03:33:11.848Z,72.38
2022-09-21T03:34:11.602Z,72.19
2022-09-21T03:35:11.870Z,72.28
2022-09-21T03:36:11.903Z,72.28
2022-09-21T03:37:11.909Z,72.38
2022-09-21T03:38:11.923Z,72.19
2022-09-21T03:39:11.944Z,72
2022-09-21T03:40:12.122Z,72.28
2022-09-21T03:41:11.728Z,72.28
2022-09-21T03:42:11.758Z,72.38
2022-09-21T03:43:11.747Z,72
2022-09-21T03:44:12.054Z,72.38
2022-09-21T03:45:12.041Z,72
2022-09-21T03:46:11.887Z,72.19
2022-09-21T03:47:12.075Z,72.19
2022-09-21T03:48:11.838Z,72.28
2022-09-21T03:49:11.853Z,72.09
2022-09-21T03:50:12.931Z,72.19
2022-09-21T03:51:12.144Z,72.19
2022-09-21T03:52:12.158Z,72.28
2022-09-21T03:53:11.923Z,72.19
2022-09-21T03:54:12.193Z,72.19
2022-09-21T03:55:11.953Z,72.19
2022-09-21T03:56:12.233Z,72.19
2022-09-21T03:57:12.248Z,72.38
2022-09-21T03:58:12.287Z,72.38
2022-09-21T03:59:16.279Z,72.38
2022-09-21T04:00:12.314Z,72.16
2022-09-21T04:01:12.428Z,72.38
2022-09-21T04:02:12.323Z,72.16
2022-09-21T04:03:12.347Z,72.19
2022-09-21T04:04:12.362Z,72.16
2022-09-21T04:05:12.381Z,72
2022-09-21T04:06:12.399Z,72.44
2022-09-21T04:07:12.417Z,72.57
2022-09-21T04:08:12.493Z,72.57
2022-09-21T04:09:12.200Z,72.28
2022-09-21T04:10:12.462Z,72.53
2022-09-21T04:11:12.487Z,72.53
2022-09-21T04:12:12.493Z,72.67
2022-09-21T04:13:12.516Z,72.28
2022-09-21T04:14:12.556Z,72.25
2022-09-21T04:15:12.291Z,72.34
2022-09-21T04:16:12.710Z,72.34
2022-09-21T04:17:12.587Z,72.25
2022-09-21T04:18:12.600Z,72.53
2022-09-21T04:19:12.623Z,72.34
2022-09-21T04:20:12.634Z,72.53
2022-09-21T04:21:12.694Z,72.44
2022-09-21T04:22:12.668Z,72.25
2022-09-21T04:23:12.424Z,72.25
2022-09-21T04:24:12.706Z,72.53
2022-09-21T04:25:12.746Z,72.53
2022-09-21T04:26:12.882Z,72.63
2022-09-21T04:27:12.498Z,72.25
2022-09-21T04:28:12.859Z,72.25
2022-09-21T04:29:12.935Z,72.25
2022-09-21T04:30:12.927Z,72.72
2022-09-21T04:31:13.076Z,72.16
2022-09-21T04:32:12.906Z,72.44
2022-09-21T04:33:12.902Z,72.25
2022-09-21T04:34:12.615Z,72.44
2022-09-21T04:35:12.906Z,72.44
2022-09-21T04:36:12.895Z,72.53
2022-09-21T04:37:12.675Z,72.44
2022-09-21T04:38:12.679Z,72.44
2022-09-21T04:39:12.967Z,72.44
2022-09-21T04:40:12.931Z,72.25
2022-09-21T04:41:12.993Z,72.34
2022-09-21T04:42:12.947Z,72.34
2022-09-21T04:43:13.017Z,72.34
2022-09-21T04:44:13.042Z,72.34
2022-09-21T04:45:13.054Z,72.34
2022-09-21T04:46:12.996Z,72.53
2022-09-21T04:47:12.882Z,72.25
2022-09-21T04:48:13.128Z,71.96
2022-09-21T04:49:13.136Z,72.06
2022-09-21T04:50:13.153Z,72.06
2022-09-21T04:51:13.170Z,72.06
2022-09-21T04:52:17.046Z,72.06
2022-09-21T04:53:13.189Z,71.96
2022-09-21T04:54:13.206Z,72.16
2022-09-21T04:55:12.963Z,72.06
2022-09-21T04:56:12.979Z,72.16
2022-09-21T04:57:13.005Z,71.96
2022-09-21T04:58:13.275Z,71.96
2022-09-21T04:59:13.031Z,72.16
2022-09-21T05:00:13.314Z,72.06
2022-09-21T05:01:13.411Z,71.96
2022-09-21T05:02:13.105Z,72.16
2022-09-21T05:03:13.147Z,72.25
2022-09-21T05:04:13.498Z,71.39
2022-09-21T05:05:13.387Z,71.68
2022-09-21T05:06:13.442Z,71.68
2022-09-21T05:07:13.164Z,71.68
2022-09-21T05:08:13.440Z,71.77
2022-09-21T05:09:13.455Z,71.58
2022-09-21T05:10:13.225Z,71.58
2022-09-21T05:11:13.477Z,71.77
2022-09-21T05:12:13.248Z,71.68
2022-09-21T05:13:15.635Z,71.58
2022-09-21T05:14:13.550Z,71.48
2022-09-21T05:15:13.553Z,71.58
2022-09-21T05:16:13.321Z,71.68
2022-09-21T05:17:13.331Z,71.77
2022-09-21T05:18:13.634Z,71.87
2022-09-21T05:19:13.627Z,72.16
2022-09-21T05:20:13.667Z,72.16
2022-09-21T05:21:13.883Z,71.87
2022-09-21T05:22:13.731Z,71.68
2022-09-21T05:23:19.036Z,71.68
2022-09-21T05:24:13.454Z,71.87
2022-09-21T05:25:13.721Z,71.77
2022-09-21T05:26:13.744Z,71.77
2022-09-21T05:27:13.492Z,71.87
2022-09-21T05:28:13.798Z,71.68
2022-09-21T05:29:13.796Z,71.68
2022-09-21T05:30:13.811Z,71.68
2022-09-21T05:31:20.581Z,71.77
2022-09-21T05:32:13.580Z,71.68
2022-09-21T05:33:13.598Z,71.87
2022-09-21T05:34:13.699Z,71.87
2022-09-21T05:35:13.892Z,71.87
2022-09-21T05:36:13.939Z,71.68
2022-09-21T05:37:13.925Z,71.68
2022-09-21T05:38:13.938Z,71.68
2022-09-21T05:39:13.700Z,71.58
2022-09-21T05:40:13.850Z,71.87
2022-09-21T05:41:13.734Z,71.48
2022-09-21T05:42:14.012Z,71.77
2022-09-21T05:43:14.028Z,71.68
2022-09-21T05:44:14.037Z,71.58
2022-09-21T05:45:14.067Z,71.87
2022-09-21T05:46:13.887Z,71.48
2022-09-21T05:47:14.096Z,71.48
2022-09-21T05:48:14.121Z,71.48
2022-09-21T05:49:13.873Z,71.48
2022-09-21T05:50:13.924Z,71.58
2022-09-21T05:51:14.158Z,71.68
2022-09-21T05:52:14.239Z,71.58
2022-09-21T05:53:14.196Z,71.48
2022-09-21T05:54:14.208Z,71.39
2022-09-21T05:55:14.232Z,71.48
2022-09-21T05:56:13.995Z,71.77
2022-09-21T05:57:14.258Z,71.48
2022-09-21T05:58:14.278Z,71.01
2022-09-21T05:59:14.043Z,70.92
2022-09-21T06:00:14.325Z,71.3
2022-09-21T06:01:14.214Z,71.3
2022-09-21T06:02:14.425Z,71.2
2022-09-21T06:03:19.826Z,71.3
2022-09-21T06:04:14.122Z,71.11
2022-09-21T06:05:14.401Z,71.01
2022-09-21T06:06:14.433Z,71.3
2022-09-21T06:07:14.434Z,71.2
2022-09-21T06:08:14.473Z,71.48
2022-09-21T06:09:14.208Z,70.92
2022-09-21T06:10:14.484Z,71.01
2022-09-21T06:11:14.502Z,71.01
2022-09-21T06:12:14.253Z,70.82
2022-09-21T06:13:14.536Z,70.63
2022-09-21T06:14:14.542Z,70.72
2022-09-21T06:15:14.310Z,70.63
2022-09-21T06:16:14.655Z,70.92
2022-09-21T06:17:14.595Z,70.63
2022-09-21T06:18:19.881Z,70.44
2022-09-21T06:19:14.372Z,70.72
2022-09-21T06:20:14.651Z,70.72
2022-09-21T06:21:14.618Z,70.72
2022-09-21T06:22:14.454Z,70.44
2022-09-21T06:23:15.059Z,70.63
2022-09-21T06:24:14.749Z,70.44
2022-09-21T06:25:14.730Z,70.57
2022-09-21T06:26:14.494Z,70.67
2022-09-21T06:27:14.510Z,70.67
2022-09-21T06:28:14.528Z,70.82
2022-09-21T06:29:14.544Z,70.47
2022-09-21T06:30:14.566Z,70.38
2022-09-21T06:31:14.632Z,70.38
2022-09-21T06:32:14.855Z,70.28
2022-09-21T06:33:14.889Z,70.28
2022-09-21T06:34:14.631Z,70.28
2022-09-21T06:35:14.906Z,70.67
2022-09-21T06:36:14.925Z,70.76
2022-09-21T06:37:14.938Z,70.47
2022-09-21T06:38:14.977Z,70.95
2022-09-21T06:39:14.971Z,70.19
2022-09-21T06:40:15.078Z,70.76
2022-09-21T06:41:21.173Z,70.95
2022-09-21T06:42:14.773Z,70.95
2022-09-21T06:43:15.040Z,70.95
2022-09-21T06:44:15.062Z,70.57
2022-09-21T06:45:14.923Z,70.57
2022-09-21T06:46:14.943Z,70.76
2022-09-21T06:47:14.852Z,70.28
2022-09-21T06:48:15.030Z,70.57
2022-09-21T06:49:15.139Z,70.57
2022-09-21T06:50:15.056Z,70.57
2022-09-21T06:51:15.064Z,70.57
2022-09-21T06:52:15.292Z,70.47
2022-09-21T06:53:15.350Z,70.19
2022-09-21T06:54:15.355Z,70.47
2022-09-21T06:55:15.237Z,70.76
2022-09-21T06:56:15.335Z,70.57
2022-09-21T06:57:15.063Z,70.67
2022-09-21T06:58:15.035Z,70.57
2022-09-21T06:59:15.369Z,70.47
2022-09-21T07:00:15.068Z,70.38
2022-09-21T07:01:15.608Z,70.28
2022-09-21T07:02:15.700Z,70.38
2022-09-21T07:03:15.124Z,70.47
2022-09-21T07:04:15.397Z,70.38
2022-09-21T07:05:15.153Z,70.28
2022-09-21T07:06:15.166Z,70.38
2022-09-21T07:07:15.439Z,70.09
2022-09-21T07:10:22.942Z,70.28
2022-09-21T07:11:17.240Z,70
2022-09-21T07:12:17.237Z,70.47
2022-09-21T07:13:16.996Z,70.38
2022-09-21T07:14:17.007Z,70.28
2022-09-21T07:15:17.281Z,70.28
2022-09-21T07:16:17.376Z,70.42
2022-09-21T07:17:18.585Z,70.42
2022-09-21T07:18:17.075Z,70.42
2022-09-21T07:19:17.342Z,70.32
2022-09-21T07:20:17.112Z,70.03
2022-09-21T07:21:17.436Z,69.93
2022-09-21T07:22:17.396Z,69.56
2022-09-21T07:23:17.414Z,69.65
2022-09-21T07:24:17.181Z,69.65
2022-09-21T07:25:17.449Z,69.65
2022-09-21T07:26:17.241Z,69.93
2022-09-21T07:27:17.523Z,70.03
2022-09-21T07:28:17.507Z,69.65
2022-09-21T07:29:17.262Z,70.22
2022-09-21T07:30:17.540Z,69.84
2022-09-21T07:31:17.431Z,70.03
2022-09-21T07:32:17.576Z,70.13
2022-09-21T07:33:17.594Z,70.03
2022-09-21T07:34:17.606Z,69.56
2022-09-21T07:35:17.626Z,70.03
2022-09-21T07:36:17.386Z,69.65
2022-09-21T07:37:17.405Z,69.46
2022-09-21T07:38:17.691Z,69.65
2022-09-21T07:39:17.690Z,69.93
2022-09-21T07:40:19.861Z,70.07
2022-09-21T07:41:17.471Z,69.68
2022-09-21T07:42:17.510Z,69.97
2022-09-21T07:43:17.787Z,69.68
2022-09-21T07:44:17.786Z,69.68
2022-09-21T07:45:17.795Z,69.49
2022-09-21T07:46:17.564Z,69.49
2022-09-21T07:47:17.826Z,69.49
2022-09-21T07:48:17.591Z,69.49
2022-09-21T07:49:17.610Z,69.31
2022-09-21T07:50:17.892Z,69.4
2022-09-21T07:51:17.907Z,69.11
2022-09-21T07:52:17.940Z,69.21
2022-09-21T07:53:17.938Z,69.02
2022-09-21T07:54:17.958Z,69.11
2022-09-21T07:55:17.975Z,69.21
2022-09-21T07:56:17.998Z,69.49
2022-09-21T07:57:17.752Z,69.31
2022-09-21T07:58:18.091Z,69.21
2022-09-21T07:59:18.068Z,69.21
2022-09-21T08:00:18.060Z,69.21
2022-09-21T08:01:18.250Z,69.49
2022-09-21T08:02:18.015Z,68.63
2022-09-21T08:03:18.118Z,69.21
2022-09-21T08:04:18.134Z,68.73
2022-09-21T08:05:18.143Z,68.92
2022-09-21T08:06:17.907Z,69.49
2022-09-21T08:07:17.922Z,69.21
2022-09-21T08:08:17.945Z,69.21
2022-09-21T08:09:18.218Z,69.31
2022-09-21T08:10:17.981Z,69.21
2022-09-21T08:11:18.255Z,69.21
2022-09-21T08:12:18.019Z,69.11
2022-09-21T08:13:18.308Z,69.11
2022-09-21T08:14:20.163Z,69.11
2022-09-21T08:15:49.613Z,69.11
2022-09-21T08:16:18.302Z,69.21
2022-09-21T08:17:18.365Z,69.21
2022-09-21T08:18:18.378Z,69.4
2022-09-21T08:19:18.403Z,69.4
2022-09-21T08:20:18.420Z,69.59
2022-09-21T08:21:18.839Z,69.59
2022-09-21T08:22:18.438Z,69.49
2022-09-21T08:23:18.209Z,69.59
2022-09-21T08:24:18.483Z,69.59
2022-09-21T08:25:18.245Z,69.49
2022-09-21T08:26:18.512Z,69.49
2022-09-21T08:27:18.540Z,69.78
2022-09-21T08:28:18.299Z,69.59
2022-09-21T08:29:18.574Z,69.68
2022-09-21T08:30:18.355Z,69.68
2022-09-21T08:31:18.754Z,69.68
2022-09-21T08:32:50.802Z,70.07
2022-09-21T08:33:18.649Z,70.07
2022-09-21T08:34:18.402Z,69.97
2022-09-21T08:35:18.687Z,70.2
2022-09-21T08:36:18.690Z,70.2
2022-09-21T08:37:18.715Z,69.97
2022-09-21T08:38:18.726Z,69.87
2022-09-21T08:39:18.745Z,70.1
2022-09-21T08:40:18.592Z,69.91
2022-09-21T08:41:18.540Z,69.82
2022-09-21T08:42:18.798Z,70.29
2022-09-21T08:43:18.819Z,70.48
2022-09-21T08:44:18.584Z,70.64
2022-09-21T08:45:18.861Z,70.26
2022-09-21T08:46:18.995Z,70.39
2022-09-21T08:47:18.917Z,70.36
2022-09-21T08:48:18.646Z,70.54
2022-09-21T08:49:18.670Z,70.1
2022-09-21T08:50:18.683Z,70.2
2022-09-21T08:51:18.907Z,70.48
2022-09-21T08:52:19.740Z,70.2
2022-09-21T08:53:19.000Z,70.67
2022-09-21T08:54:19.009Z,70.48
2022-09-21T08:55:20.271Z,70.29
2022-09-21T08:56:19.045Z,70.77
2022-09-21T08:57:19.070Z,70.58
2022-09-21T08:58:19.086Z,70.58
2022-09-21T08:59:19.113Z,70.58
2022-09-21T09:00:18.862Z,70.87
2022-09-21T09:01:19.258Z,70.58
2022-09-21T09:02:19.289Z,70.58
2022-09-21T09:03:19.193Z,70.77
2022-09-21T09:04:19.192Z,70.77
2022-09-21T09:05:18.947Z,70.96
2022-09-21T09:06:21.457Z,70.77
2022-09-21T09:07:18.981Z,70.77
2022-09-21T09:08:19.263Z,70.77
2022-09-21T09:09:19.277Z,70.58
2022-09-21T09:10:19.302Z,70.48
2022-09-21T09:11:19.062Z,70.58
2022-09-21T09:12:19.077Z,70.77
2022-09-21T09:13:19.092Z,70.87
2022-09-21T09:14:19.370Z,70.77
2022-09-21T09:15:19.382Z,70.67
2022-09-21T09:16:19.608Z,70.67
2022-09-21T09:17:19.421Z,70.87
2022-09-21T09:18:19.481Z,71.06
2022-09-21T09:19:19.490Z,70.58
2022-09-21T09:20:19.486Z,70.67
2022-09-21T09:21:32.300Z,70.67
2022-09-21T09:22:19.515Z,70.77
2022-09-21T09:23:19.530Z,70.77
2022-09-21T09:24:19.548Z,70.58
2022-09-21T09:25:19.565Z,70.77
2022-09-21T09:26:19.588Z,70.77
2022-09-21T09:27:19.350Z,70.48
2022-09-21T09:28:19.620Z,70.87
2022-09-21T09:29:19.374Z,70.87
2022-09-21T09:30:19.414Z,70.58
2022-09-21T09:31:19.784Z,70.58
2022-09-21T09:32:19.696Z,70.77
2022-09-21T09:33:19.702Z,70.87
2022-09-21T09:34:19.757Z,70.67
2022-09-21T09:35:19.763Z,70.96
2022-09-21T09:36:54.255Z,70.87
2022-09-21T09:37:19.517Z,70.87
2022-09-21T09:38:19.793Z,70.87
2022-09-21T09:39:19.812Z,70.87
2022-09-21T09:40:19.713Z,70.87
2022-09-21T09:41:19.848Z,70.87
2022-09-21T09:42:19.873Z,70.87
2022-09-21T09:43:19.882Z,70.87
2022-09-21T09:44:19.900Z,70.87
2022-09-21T09:45:22.094Z,70.87
2022-09-21T09:46:19.786Z,70.87
2022-09-21T09:47:19.699Z,70.77
2022-09-21T09:48:19.974Z,70.67
2022-09-21T09:49:19.986Z,71.19
2022-09-21T09:50:20.038Z,70.9
2022-09-21T09:51:20.053Z,70.9
2022-09-21T09:52:19.788Z,70.9
2022-09-21T09:53:20.065Z,70.9
2022-09-21T09:54:19.823Z,71
2022-09-21T09:55:20.102Z,70.61
2022-09-21T09:56:20.132Z,70.81
2022-09-21T09:57:20.141Z,70.71
2022-09-21T09:58:20.183Z,70.71
2022-09-21T09:59:20.182Z,70.81
2022-09-21T10:00:20.187Z,70.71
2022-09-21T10:01:20.072Z,70.81
2022-09-21T10:02:20.223Z,70.61
2022-09-21T10:03:20.250Z,70.81
2022-09-21T10:04:20.210Z,70.81
2022-09-21T10:05:20.281Z,70.71
2022-09-21T10:06:20.324Z,70.81
2022-09-21T10:07:20.349Z,70.61
2022-09-21T10:08:20.074Z,70.81
2022-09-21T10:09:20.093Z,70.71
2022-09-21T10:10:20.118Z,70.71
2022-09-21T10:11:20.134Z,70.81
2022-09-21T10:12:20.468Z,70.61
2022-09-21T10:13:20.893Z,70.81
2022-09-21T10:14:20.436Z,71.09
2022-09-21T10:15:20.208Z,70.52
2022-09-21T10:16:20.483Z,70.52
2022-09-21T10:17:20.496Z,70.42
2022-09-21T10:18:20.510Z,70.71
2022-09-21T10:19:20.537Z,70.81
2022-09-21T10:20:20.556Z,70.81
2022-09-21T10:21:20.565Z,70.84
2022-09-21T10:22:20.352Z,71.19
2022-09-21T10:23:20.640Z,70.81
2022-09-21T10:24:20.657Z,70.65
2022-09-21T10:25:20.388Z,70.84
2022-09-21T10:26:20.654Z,70.81
2022-09-21T10:27:20.429Z,70.84
2022-09-21T10:28:20.441Z,70.84
2022-09-21T10:29:20.717Z,70.52
2022-09-21T10:30:20.740Z,70.36
2022-09-21T10:31:20.851Z,70.56
2022-09-21T10:32:20.770Z,70.71
2022-09-21T10:33:20.796Z,70.07
2022-09-21T10:34:20.802Z,70.46
2022-09-21T10:35:20.828Z,70.56
2022-09-21T10:36:20.835Z,70.46
2022-09-21T10:37:20.863Z,70.56
2022-09-21T10:38:24.531Z,70.17
2022-09-21T10:39:20.927Z,70.46
2022-09-21T10:40:21.109Z,70.56
2022-09-21T10:41:20.938Z,70.27
2022-09-21T10:42:20.696Z,70.65
2022-09-21T10:43:20.973Z,70.46
2022-09-21T10:44:20.996Z,70.27
2022-09-21T10:45:20.746Z,70.17
2022-09-21T10:46:21.187Z,70.36
2022-09-21T10:47:21.041Z,70.17
2022-09-21T10:48:21.062Z,70.46
2022-09-21T10:49:20.820Z,70.27
2022-09-21T10:50:21.094Z,70.27
2022-09-21T10:51:20.866Z,70.56
2022-09-21T10:52:21.139Z,70.07
2022-09-21T10:53:20.893Z,70.46
2022-09-21T10:54:21.202Z,70.27
2022-09-21T10:55:21.215Z,70.46
2022-09-21T10:56:21.617Z,70.17
2022-09-21T10:57:21.225Z,70.75
2022-09-21T10:58:21.242Z,70.56
2022-09-21T10:59:21.263Z,70.46
2022-09-21T11:00:21.312Z,70.46
2022-09-21T11:01:21.390Z,70.46
2022-09-21T11:02:21.429Z,70.46
2022-09-21T11:03:21.082Z,70.27
2022-09-21T11:04:21.387Z,70.27
2022-09-21T11:05:21.119Z,70.36
2022-09-21T11:06:21.388Z,70.46
2022-09-21T11:07:21.414Z,70.17
2022-09-21T11:08:21.435Z,70.17
2022-09-21T11:09:21.189Z,70.46
2022-09-21T11:10:21.574Z,70.27
2022-09-21T11:11:21.508Z,70.46
2022-09-21T11:12:21.244Z,70.65
2022-09-21T11:13:21.517Z,69.79
2022-09-21T11:14:21.545Z,69.89
2022-09-21T11:15:21.299Z,69.89
2022-09-21T11:16:21.476Z,69.73
2022-09-21T11:17:21.595Z,69.89
2022-09-21T11:18:21.614Z,70.11
2022-09-21T11:19:21.628Z,70.01
2022-09-21T11:20:21.698Z,70.3
2022-09-21T11:21:22.015Z,70.21
2022-09-21T11:22:21.693Z,69.64
2022-09-21T11:23:21.701Z,70.21
2022-09-21T11:24:21.774Z,70.3
2022-09-21T11:25:21.736Z,70.21
2022-09-21T11:26:21.784Z,70.21
2022-09-21T11:27:21.802Z,69.73
2022-09-21T11:28:21.796Z,69.73
2022-09-21T11:29:21.907Z,70.21
2022-09-21T11:30:21.958Z,70.3
2022-09-21T11:31:21.792Z,69.82
2022-09-21T11:32:21.619Z,69.82
2022-09-21T11:33:21.651Z,69.73
2022-09-21T11:34:21.908Z,69.73
2022-09-21T11:35:21.929Z,69.64
2022-09-21T11:36:21.687Z,69.92
2022-09-21T11:37:21.971Z,69.44
2022-09-21T11:38:21.728Z,69.35
2022-09-21T11:39:21.748Z,69.44
2022-09-21T11:40:22.217Z,69.35
2022-09-21T11:41:22.042Z,69.35
2022-09-21T11:42:21.821Z,68.62
2022-09-21T11:43:25.170Z,69.15
2022-09-21T11:44:21.852Z,68.8
2022-09-21T11:45:21.856Z,69.19
2022-09-21T11:46:22.218Z,69.29
2022-09-21T11:47:21.900Z,69.09
2022-09-21T11:48:22.163Z,68.8
2022-09-21T11:49:22.190Z,68.62
2022-09-21T11:50:33.100Z,68.71
2022-09-21T11:51:21.971Z,69
2022-09-21T11:52:22.250Z,69
2022-09-21T11:53:22.003Z,68.23
2022-09-21T11:54:22.285Z,68.62
2022-09-21T11:55:22.306Z,68.23
2022-09-21T11:56:22.318Z,69
2022-09-21T11:57:22.346Z,68.62
2022-09-21T11:58:22.383Z,68.42
2022-09-21T11:59:22.410Z,68.23
2022-09-21T12:00:22.419Z,68.23
2022-09-21T12:01:22.163Z,68.52
2022-09-21T12:02:22.842Z,68.62
2022-09-21T12:03:22.462Z,68.9
2022-09-21T12:04:22.475Z,68.74
2022-09-21T12:05:22.504Z,68.17
2022-09-21T12:06:22.510Z,68.27
2022-09-21T12:07:22.272Z,68.33
2022-09-21T12:08:22.547Z,67.98
2022-09-21T12:09:22.558Z,67.88
2022-09-21T12:10:22.588Z,67.88
2022-09-21T12:11:22.615Z,67.98
2022-09-21T12:12:22.370Z,67.98
2022-09-21T12:13:22.642Z,67.79
2022-09-21T12:14:22.673Z,67.88
2022-09-21T12:15:22.892Z,67.79
2022-09-21T12:16:22.775Z,67.79
2022-09-21T12:17:22.719Z,67.79
2022-09-21T12:18:22.491Z,67.41
2022-09-21T12:19:22.504Z,67.5
2022-09-21T12:20:22.773Z,67.5
2022-09-21T12:21:22.789Z,67.79
2022-09-21T12:22:22.814Z,67.6
2022-09-21T12:23:22.581Z,67.31
2022-09-21T12:24:22.851Z,67.41
2022-09-21T12:25:22.611Z,67.6
2022-09-21T12:26:22.908Z,67.5
2022-09-21T12:27:22.652Z,67.5
2022-09-21T12:28:22.674Z,67.69
2022-09-21T12:29:22.689Z,67.31
2022-09-21T12:30:22.776Z,67.02
2022-09-21T12:31:23.172Z,67.31
2022-09-21T12:32:23.025Z,67.02
2022-09-21T12:33:23.015Z,67.31
2022-09-21T12:34:23.047Z,67.44
2022-09-21T12:35:22.802Z,67.31
2022-09-21T12:36:22.825Z,67.34
2022-09-21T12:37:22.845Z,66.86
2022-09-21T12:38:22.940Z,67.05
2022-09-21T12:39:23.137Z,66.86
2022-09-21T12:40:23.297Z,67.25
2022-09-21T12:41:23.177Z,66.86
2022-09-21T12:42:23.199Z,66.86
2022-09-21T12:43:22.962Z,66.86
2022-09-21T12:44:22.992Z,66.86
2022-09-21T12:45:23.004Z,67.25
2022-09-21T12:46:23.238Z,66.96
2022-09-21T12:47:23.355Z,67.15
2022-09-21T12:48:23.325Z,67.25
2022-09-21T12:49:23.335Z,67.15
2022-09-21T12:50:23.386Z,66.67
2022-09-21T12:51:23.117Z,66.58
2022-09-21T12:52:23.397Z,66.77
2022-09-21T12:53:23.408Z,66.86
2022-09-21T12:54:23.441Z,66.77
2022-09-21T12:55:23.201Z,66.89
2022-09-21T12:56:23.475Z,66.71
2022-09-21T12:57:59.066Z,66.42